createdAt,value
2023-03-04T00:00:26.072Z,56.45
2023-03-04T00:00:59.134Z,55.85
2023-03-04T00:01:30.937Z,60.00
2023-03-04T00:02:03.273Z,56.70
2023-03-04T00:02:36.157Z,54.95
2023-03-04T00:03:09.439Z,61.45
2023-03-04T00:03:41.244Z,60.00
2023-03-04T00:04:14.103Z,58.83
2023-03-04T00:04:45.991Z,58.53
2023-03-04T00:05:17.937Z,57.85
2023-03-04T00:05:50.755Z,51.08
2023-03-04T00:06:24.053Z,55.30
2023-03-04T00:06:55.848Z,63.70
2023-03-04T00:07:28.631Z,58.13
2023-03-04T00:08:00.406Z,57.03
2023-03-04T00:08:32.228Z,62.38
2023-03-04T00:09:05.524Z,60.30
2023-03-04T00:09:37.348Z,59.72
2023-03-04T00:10:10.859Z,57.83
2023-03-04T00:10:44.012Z,64.22
2023-03-04T00:11:16.863Z,60.30
2023-03-04T00:11:48.677Z,55.35
2023-03-04T00:12:20.489Z,58.78
2023-03-04T00:12:53.259Z,58.63
2023-03-04T00:13:25.127Z,53.85
2023-03-04T00:13:57.315Z,60.00
2023-03-04T00:14:30.604Z,60.03
2023-03-04T00:15:02.542Z,59.65
2023-03-04T00:15:34.354Z,56.45
2023-03-04T00:16:07.992Z,54.05
2023-03-04T00:16:39.866Z,63.92
2023-03-04T00:17:11.773Z,59.58
2023-03-04T00:17:46.082Z,58.50
2023-03-04T00:18:18.213Z,63.67
2023-03-04T00:18:50.053Z,57.90
2023-03-04T00:19:22.826Z,61.40
2023-03-04T00:19:54.616Z,57.55
2023-03-04T00:20:26.403Z,57.75
2023-03-04T00:20:59.164Z,59.20
2023-03-04T00:21:32.356Z,57.13
2023-03-04T00:22:04.571Z,58.00
2023-03-04T00:22:37.387Z,60.20
2023-03-04T00:23:09.294Z,65.15
2023-03-04T00:23:41.847Z,58.53
2023-03-04T00:24:14.605Z,63.15
2023-03-04T00:24:46.390Z,63.50
2023-03-04T00:25:18.325Z,57.70
2023-03-04T00:25:50.161Z,56.35
2023-03-04T00:26:23.744Z,66.68
2023-03-04T00:26:55.658Z,55.38
2023-03-04T00:27:27.438Z,59.75
2023-03-04T00:28:00.925Z,61.10
2023-03-04T00:28:32.722Z,54.42
2023-03-04T00:29:04.526Z,56.95
2023-03-04T00:29:37.297Z,56.08
2023-03-04T00:30:10.409Z,56.00
2023-03-04T00:30:42.207Z,58.58
2023-03-04T00:31:15.041Z,57.63
2023-03-04T00:31:46.946Z,58.22
2023-03-04T00:32:18.801Z,59.15
2023-03-04T00:32:51.729Z,68.05
2023-03-04T00:33:23.565Z,55.00
2023-03-04T00:33:55.367Z,54.17
2023-03-04T00:34:27.141Z,53.70
2023-03-04T00:34:59.937Z,54.60
2023-03-04T00:35:31.751Z,58.42
2023-03-04T00:36:04.688Z,65.28
2023-03-04T00:36:38.930Z,62.22
2023-03-04T00:37:11.003Z,65.07
2023-03-04T00:37:42.824Z,57.97
2023-03-04T00:38:14.647Z,63.58
2023-03-04T00:38:47.379Z,65.13
2023-03-04T00:39:20.045Z,66.03
2023-03-04T00:39:52.162Z,61.50
2023-03-04T00:40:24.921Z,57.47
2023-03-04T00:40:56.762Z,64.00
2023-03-04T00:41:28.557Z,62.88
2023-03-04T00:42:01.312Z,61.25
2023-03-04T00:42:33.120Z,54.67
2023-03-04T00:43:04.973Z,53.92
2023-03-04T00:43:37.748Z,58.22
2023-03-04T00:44:09.727Z,58.42
2023-03-04T00:44:41.655Z,55.65
2023-03-04T00:45:14.430Z,61.28
2023-03-04T00:45:46.347Z,59.53
2023-03-04T00:46:18.220Z,53.72
2023-03-04T00:46:51.072Z,54.55
2023-03-04T00:47:22.890Z,61.05
2023-03-04T00:47:54.696Z,58.15
2023-03-04T00:48:27.489Z,55.65
2023-03-04T00:48:59.288Z,61.45
2023-03-04T00:49:31.233Z,54.42
2023-03-04T00:50:04.865Z,58.72
2023-03-04T00:50:37.297Z,54.25
2023-03-04T00:51:09.157Z,54.03
2023-03-04T00:51:43.334Z,62.17
2023-03-04T00:52:15.146Z,60.00
2023-03-04T00:52:46.939Z,53.97
2023-03-04T00:53:19.961Z,56.85
2023-03-04T00:53:52.196Z,57.55
2023-03-04T00:54:24.010Z,57.35
2023-03-04T00:54:56.812Z,56.28
2023-03-04T00:55:28.737Z,53.55
2023-03-04T00:56:00.563Z,62.58
2023-03-04T00:56:33.293Z,55.70
2023-03-04T00:57:05.101Z,61.78
2023-03-04T00:57:36.944Z,53.78
2023-03-04T00:58:09.761Z,55.40
2023-03-04T00:58:41.700Z,58.72
2023-03-04T00:59:13.487Z,58.13
2023-03-04T00:59:46.273Z,55.08
2023-03-04T01:00:18.944Z,58.13
2023-03-04T01:00:50.747Z,56.15
2023-03-04T01:01:23.607Z,57.00
2023-03-04T01:01:55.472Z,50.60
2023-03-04T01:02:27.452Z,65.47
2023-03-04T01:02:59.324Z,57.50
2023-03-04T01:03:32.997Z,58.20
2023-03-04T01:04:05.028Z,55.40
2023-03-04T01:04:37.433Z,61.80
2023-03-04T01:05:11.004Z,53.55
2023-03-04T01:05:42.880Z,53.30
2023-03-04T01:06:14.769Z,65.70
2023-03-04T01:06:48.904Z,55.10
2023-03-04T01:07:20.917Z,63.35
2023-03-04T01:07:52.704Z,62.58
2023-03-04T01:08:24.590Z,55.65
2023-03-04T01:08:57.398Z,56.10
2023-03-04T01:09:29.200Z,58.75
2023-03-04T01:10:01.240Z,58.00
2023-03-04T01:10:33.454Z,62.88
2023-03-04T01:11:06.556Z,54.45
2023-03-04T01:11:38.400Z,59.00
2023-03-04T01:12:10.178Z,57.95
2023-03-04T01:12:43.230Z,56.67
2023-03-04T01:13:15.053Z,51.85
2023-03-04T01:13:46.915Z,57.45
2023-03-04T01:14:19.959Z,56.30
2023-03-04T01:14:51.887Z,58.78
2023-03-04T01:15:24.076Z,54.85
2023-03-04T01:15:56.017Z,54.83
2023-03-04T01:16:28.843Z,56.83
2023-03-04T01:17:00.710Z,61.65
2023-03-04T01:17:32.622Z,57.80
2023-03-04T01:18:05.484Z,59.63
2023-03-04T01:18:37.484Z,57.53
2023-03-04T01:19:09.294Z,55.85
2023-03-04T01:19:42.086Z,57.97
2023-03-04T01:20:14.387Z,53.85
2023-03-04T01:20:46.193Z,56.58
2023-03-04T01:21:19.185Z,59.35
2023-03-04T01:21:52.588Z,59.85
2023-03-04T01:22:24.518Z,56.45
2023-03-04T01:22:57.292Z,50.65
2023-03-04T01:23:29.189Z,56.88
2023-03-04T01:24:01.025Z,56.05
2023-03-04T01:24:33.828Z,59.20
2023-03-04T01:25:07.146Z,54.70
2023-03-04T01:25:39.085Z,55.45
2023-03-04T01:26:11.852Z,55.67
2023-03-04T01:26:43.780Z,52.38
2023-03-04T01:27:15.592Z,57.88
2023-03-04T01:27:47.412Z,52.90
2023-03-04T01:28:20.181Z,49.30
2023-03-04T01:28:52.083Z,58.83
2023-03-04T01:29:23.891Z,56.45
2023-03-04T01:29:56.700Z,53.70
2023-03-04T01:30:28.591Z,55.83
2023-03-04T01:31:00.402Z,52.33
2023-03-04T01:31:33.240Z,56.08
2023-03-04T01:32:05.552Z,57.08
2023-03-04T01:32:37.458Z,53.55
2023-03-04T01:33:10.263Z,56.97
2023-03-04T01:33:42.133Z,54.22
2023-03-04T01:34:14.052Z,55.15
2023-03-04T01:34:47.216Z,52.92
2023-03-04T01:35:19.018Z,55.97
2023-03-04T01:35:50.862Z,62.63
2023-03-04T01:36:23.669Z,61.47
2023-03-04T01:36:56.845Z,60.83
2023-03-04T01:37:28.727Z,52.75
2023-03-04T01:38:01.584Z,49.63
2023-03-04T01:38:33.421Z,58.03
2023-03-04T01:39:05.450Z,52.55
2023-03-04T01:39:38.192Z,58.17
2023-03-04T01:40:11.327Z,56.50
2023-03-04T01:40:43.152Z,57.03
2023-03-04T01:41:26.607Z,59.88
2023-03-04T01:41:58.748Z,53.95
2023-03-04T01:42:33.864Z,57.70
2023-03-04T01:43:07.015Z,58.67
2023-03-04T01:43:39.239Z,51.42
2023-03-04T01:44:12.050Z,57.83
2023-03-04T01:44:45.509Z,57.78
2023-03-04T01:45:19.387Z,53.28
2023-03-04T01:45:52.978Z,57.22
2023-03-04T01:46:26.090Z,52.97
2023-03-04T01:46:58.121Z,51.97
2023-03-04T01:47:32.900Z,51.38
2023-03-04T01:48:05.897Z,59.13
2023-03-04T01:48:38.849Z,59.20
2023-03-04T01:49:14.322Z,55.30
2023-03-04T01:49:51.850Z,53.75
2023-03-04T01:50:28.555Z,53.85
2023-03-04T01:51:02.992Z,48.60
2023-03-04T01:51:35.793Z,54.60
2023-03-04T01:52:12.204Z,53.80
2023-03-04T01:52:44.016Z,60.92
2023-03-04T01:53:21.119Z,55.90
2023-03-04T01:53:54.808Z,57.72
2023-03-04T01:54:26.696Z,56.00
2023-03-04T01:54:59.523Z,56.60
2023-03-04T01:55:32.081Z,53.85
2023-03-04T01:56:12.672Z,56.65
2023-03-04T01:56:47.255Z,57.17
2023-03-04T01:57:22.086Z,49.90
2023-03-04T01:57:54.624Z,53.40
2023-03-04T01:58:31.130Z,55.40
2023-03-04T01:59:11.537Z,58.05
2023-03-04T01:59:43.790Z,53.25
2023-03-04T02:00:23.067Z,55.80
2023-03-04T02:00:54.895Z,57.47
2023-03-04T02:01:26.749Z,56.33
2023-03-04T02:02:01.227Z,59.08
2023-03-04T02:02:33.044Z,53.85
2023-03-04T02:03:07.825Z,57.35
2023-03-04T02:03:41.373Z,50.15
2023-03-04T02:04:13.864Z,60.30
2023-03-04T02:04:45.852Z,57.28
2023-03-04T02:05:19.171Z,53.60
2023-03-04T02:05:53.528Z,56.33
2023-03-04T02:06:25.365Z,54.65
2023-03-04T02:06:59.919Z,57.03
2023-03-04T02:07:33.219Z,52.08
2023-03-04T02:08:05.913Z,55.33
2023-03-04T02:08:38.674Z,51.50
2023-03-04T02:09:11.314Z,57.67
2023-03-04T02:09:43.164Z,59.72
2023-03-04T02:10:15.013Z,55.53
2023-03-04T02:10:48.384Z,56.55
2023-03-04T02:11:20.208Z,55.65
2023-03-04T02:11:52.751Z,57.05
2023-03-04T02:12:24.555Z,57.22
2023-03-04T02:12:57.365Z,54.72
2023-03-04T02:13:29.226Z,54.55
2023-03-04T02:14:01.040Z,55.03
2023-03-04T02:14:34.056Z,58.90
2023-03-04T02:15:07.807Z,55.35
2023-03-04T02:15:39.799Z,51.45
2023-03-04T02:16:12.713Z,55.50
2023-03-04T02:16:44.703Z,54.60
2023-03-04T02:17:16.498Z,52.88
2023-03-04T02:17:48.348Z,53.55
2023-03-04T02:18:22.932Z,56.65
2023-03-04T02:18:55.248Z,51.13
2023-03-04T02:19:42.851Z,53.63
2023-03-04T02:20:30.780Z,53.75
2023-03-04T02:21:12.726Z,49.47
2023-03-04T02:21:44.550Z,54.08
2023-03-04T02:22:16.347Z,54.03
2023-03-04T02:22:57.979Z,52.33
2023-03-04T02:23:35.262Z,58.33
2023-03-04T02:24:16.028Z,50.70
2023-03-04T02:24:52.565Z,55.45
2023-03-04T02:25:31.067Z,51.15
2023-03-04T02:26:19.701Z,52.67
2023-03-04T02:26:51.542Z,58.78
2023-03-04T02:27:23.576Z,57.85
2023-03-04T02:27:56.440Z,54.80
2023-03-04T02:28:28.291Z,57.28
2023-03-04T02:29:01.320Z,54.25
2023-03-04T02:29:34.084Z,54.42
2023-03-04T02:30:07.148Z,54.38
2023-03-04T02:30:39.107Z,53.28
2023-03-04T02:31:24.088Z,52.80
2023-03-04T02:31:56.130Z,48.65
2023-03-04T02:32:28.147Z,51.47
2023-03-04T02:33:01.010Z,57.20
2023-03-04T02:33:33.177Z,59.42
2023-03-04T02:34:07.798Z,49.47
2023-03-04T02:34:46.462Z,54.70
2023-03-04T02:35:20.153Z,51.35
2023-03-04T02:35:52.146Z,50.15
2023-03-04T02:36:25.320Z,51.95
2023-03-04T02:36:59.092Z,55.67
2023-03-04T02:37:30.939Z,50.28
2023-03-04T02:38:02.759Z,47.40
2023-03-04T02:38:34.574Z,49.88
2023-03-04T02:39:12.999Z,50.83
2023-03-04T02:39:47.332Z,53.70
2023-03-04T02:40:24.530Z,54.08
2023-03-04T02:40:58.252Z,46.45
2023-03-04T02:41:31.668Z,50.75
2023-03-04T02:42:04.737Z,55.80
2023-03-04T02:42:37.519Z,48.90
2023-03-04T02:43:11.352Z,48.95
2023-03-04T02:43:45.025Z,45.35
2023-03-04T02:44:19.173Z,48.42
2023-03-04T02:45:00.956Z,51.42
2023-03-04T02:45:40.928Z,53.65
2023-03-04T02:46:13.669Z,50.60
2023-03-04T02:46:46.636Z,57.70
2023-03-04T02:47:19.639Z,53.97
2023-03-04T02:47:51.424Z,51.70
2023-03-04T02:48:23.921Z,49.20
2023-03-04T02:48:55.780Z,50.47
2023-03-04T02:49:31.076Z,48.53
2023-03-04T02:50:02.917Z,51.70
2023-03-04T02:50:38.080Z,50.15
2023-03-04T02:51:09.936Z,48.53
2023-03-04T02:51:42.804Z,57.88
2023-03-04T02:52:18.093Z,52.25
2023-03-04T02:52:49.952Z,50.30
2023-03-04T02:53:23.218Z,51.55
2023-03-04T02:53:55.012Z,50.53
2023-03-04T02:54:26.927Z,51.58
2023-03-04T02:54:59.697Z,52.45
2023-03-04T02:55:32.234Z,51.70
2023-03-04T02:56:04.651Z,49.83
2023-03-04T02:56:38.741Z,48.65
2023-03-04T02:57:12.786Z,52.05
2023-03-04T02:57:44.544Z,51.65
2023-03-04T02:58:17.541Z,47.40
2023-03-04T02:58:49.326Z,47.22
2023-03-04T02:59:22.730Z,45.40
2023-03-04T02:59:55.483Z,51.03
2023-03-04T03:00:27.678Z,50.45
2023-03-04T03:00:59.669Z,49.58
2023-03-04T03:01:32.475Z,54.97
2023-03-04T03:02:04.734Z,49.65
2023-03-04T03:02:36.569Z,52.60
2023-03-04T03:03:09.969Z,48.65
2023-03-04T03:03:41.792Z,52.25
2023-03-04T03:04:13.664Z,47.10
2023-03-04T03:04:45.506Z,49.90
2023-03-04T03:05:19.318Z,46.38
2023-03-04T03:05:51.285Z,46.97
2023-03-04T03:06:24.054Z,49.40
2023-03-04T03:06:56.058Z,50.65
2023-03-04T03:07:27.849Z,50.80
2023-03-04T03:08:00.684Z,50.47
2023-03-04T03:08:32.462Z,49.22
2023-03-04T03:09:04.763Z,49.40
2023-03-04T03:09:37.544Z,50.88
2023-03-04T03:10:10.818Z,53.33
2023-03-04T03:10:42.700Z,50.97
2023-03-04T03:11:15.466Z,43.20
2023-03-04T03:11:48.718Z,49.20
2023-03-04T03:12:20.536Z,48.22
2023-03-04T03:12:52.939Z,46.38
2023-03-04T03:13:25.740Z,50.28
2023-03-04T03:13:57.691Z,49.35
2023-03-04T03:14:29.511Z,45.25
2023-03-04T03:15:01.310Z,52.65
2023-03-04T03:15:34.171Z,46.38
2023-03-04T03:16:06.479Z,53.22
2023-03-04T03:16:38.314Z,51.92
2023-03-04T03:17:10.447Z,51.83
2023-03-04T03:17:43.348Z,47.00
2023-03-04T03:18:15.185Z,57.03
2023-03-04T03:18:47.009Z,47.25
2023-03-04T03:19:19.798Z,46.72
2023-03-04T03:19:51.622Z,50.00
2023-03-04T03:20:23.436Z,48.90
2023-03-04T03:20:56.209Z,45.60
2023-03-04T03:21:28.143Z,49.85
2023-03-04T03:21:59.956Z,46.30
2023-03-04T03:22:31.836Z,45.05
2023-03-04T03:23:05.260Z,52.10
2023-03-04T03:23:37.090Z,46.88
2023-03-04T03:24:08.935Z,48.35
2023-03-04T03:24:41.743Z,49.83
2023-03-04T03:25:15.345Z,49.33
2023-03-04T03:25:47.131Z,52.20
2023-03-04T03:26:20.183Z,46.38
2023-03-04T03:26:53.321Z,53.17
2023-03-04T03:27:25.098Z,51.53
2023-03-04T03:27:57.892Z,47.70
2023-03-04T03:28:29.698Z,47.97
2023-03-04T03:29:01.496Z,52.78
2023-03-04T03:29:33.400Z,47.72
2023-03-04T03:30:07.678Z,47.47
2023-03-04T03:30:39.550Z,46.95
2023-03-04T03:31:11.531Z,51.00
2023-03-04T03:31:44.421Z,57.88
2023-03-04T03:32:16.565Z,53.67
2023-03-04T03:32:48.383Z,51.45
2023-03-04T03:33:21.139Z,46.70
2023-03-04T03:33:52.968Z,52.38
2023-03-04T03:34:24.875Z,50.10
2023-03-04T03:34:56.674Z,50.95
2023-03-04T03:35:29.661Z,46.45
2023-03-04T03:36:01.625Z,46.90
2023-03-04T03:36:33.480Z,45.83
2023-03-04T03:37:05.402Z,48.97
2023-03-04T03:37:38.304Z,47.38
2023-03-04T03:38:10.132Z,53.35
2023-03-04T03:38:41.959Z,47.92
2023-03-04T03:39:15.508Z,46.83
2023-03-04T03:39:47.304Z,48.03
2023-03-04T03:40:19.123Z,47.30
2023-03-04T03:40:51.874Z,52.42
2023-03-04T03:41:23.648Z,48.65
2023-03-04T03:41:56.812Z,48.92
2023-03-04T03:42:28.672Z,47.63
2023-03-04T03:43:01.434Z,50.47
2023-03-04T03:43:33.247Z,45.30
2023-03-04T03:44:05.362Z,50.33
2023-03-04T03:44:37.176Z,46.20
2023-03-04T03:45:10.768Z,46.20
2023-03-04T03:45:42.639Z,50.10
2023-03-04T03:46:14.460Z,48.80
2023-03-04T03:46:47.738Z,53.20
2023-03-04T03:47:19.522Z,46.35
2023-03-04T03:47:51.328Z,48.28
2023-03-04T03:48:24.094Z,49.80
2023-03-04T03:48:55.880Z,51.40
2023-03-04T03:49:27.710Z,48.63
2023-03-04T03:49:59.565Z,47.28
2023-03-04T03:50:33.243Z,49.80
2023-03-04T03:51:05.407Z,51.55
2023-03-04T03:51:37.278Z,52.80
2023-03-04T03:52:10.021Z,50.15
2023-03-04T03:52:41.832Z,49.25
2023-03-04T03:53:13.795Z,47.28
2023-03-04T03:53:46.575Z,49.28
2023-03-04T03:54:18.400Z,48.10
2023-03-04T03:54:50.218Z,45.00
2023-03-04T03:55:23.078Z,46.90
2023-03-04T03:55:54.861Z,47.33
2023-03-04T03:56:26.680Z,49.25
2023-03-04T03:57:00.833Z,46.00
2023-03-04T03:57:32.652Z,48.03
2023-03-04T03:58:04.610Z,49.25
2023-03-04T03:58:37.381Z,45.72
2023-03-04T03:59:09.197Z,51.80
2023-03-04T03:59:41.024Z,48.88
2023-03-04T04:00:15.044Z,49.38
2023-03-04T04:00:46.822Z,49.50
2023-03-04T04:01:18.656Z,49.05
2023-03-04T04:01:50.552Z,47.58
2023-03-04T04:02:23.647Z,47.40
2023-03-04T04:02:57.376Z,49.30
2023-03-04T04:03:29.450Z,48.22
2023-03-04T04:04:02.347Z,44.88
2023-03-04T04:04:34.200Z,54.38
2023-03-04T04:05:07.355Z,52.20
2023-03-04T04:05:40.156Z,48.17
2023-03-04T04:06:12.063Z,49.72
2023-03-04T04:06:43.895Z,52.22
2023-03-04T04:07:15.786Z,53.33
2023-03-04T04:07:48.553Z,48.17
2023-03-04T04:08:20.372Z,48.90
2023-03-04T04:08:52.644Z,47.35
2023-03-04T04:09:25.454Z,49.25
2023-03-04T04:09:57.784Z,48.90
2023-03-04T04:10:29.559Z,49.35
2023-03-04T04:11:02.356Z,46.78
2023-03-04T04:11:34.160Z,45.42
2023-03-04T04:12:08.017Z,56.35
2023-03-04T04:12:40.833Z,56.08
2023-03-04T04:13:12.636Z,47.60
2023-03-04T04:13:44.459Z,53.72
2023-03-04T04:14:17.250Z,54.38
2023-03-04T04:14:49.085Z,46.40
2023-03-04T04:15:21.106Z,51.38
2023-03-04T04:15:54.185Z,54.00
2023-03-04T04:16:26.070Z,46.38
2023-03-04T04:16:57.893Z,47.95
2023-03-04T04:17:30.627Z,46.63
2023-03-04T04:18:02.517Z,43.30
2023-03-04T04:18:34.292Z,50.22
2023-03-04T04:19:07.391Z,53.08
2023-03-04T04:19:40.587Z,48.95
2023-03-04T04:20:12.651Z,46.78
2023-03-04T04:20:45.439Z,49.88
2023-03-04T04:21:17.281Z,51.17
2023-03-04T04:21:49.263Z,51.80
2023-03-04T04:22:21.335Z,51.92
2023-03-04T04:22:54.189Z,46.03
2023-03-04T04:23:25.993Z,51.10
2023-03-04T04:23:57.808Z,54.30
2023-03-04T04:24:30.866Z,47.60
2023-03-04T04:25:02.693Z,54.72
2023-03-04T04:25:34.641Z,44.70
2023-03-04T04:26:07.446Z,51.28
2023-03-04T04:26:39.421Z,46.70
2023-03-04T04:27:13.120Z,55.35
2023-03-04T04:27:45.892Z,46.08
2023-03-04T04:28:17.692Z,47.38
2023-03-04T04:28:49.588Z,50.13
2023-03-04T04:29:23.064Z,50.80
2023-03-04T04:29:54.832Z,50.95
2023-03-04T04:30:26.986Z,48.55
2023-03-04T04:30:58.816Z,49.65
2023-03-04T04:31:31.624Z,48.53
2023-03-04T04:32:04.083Z,48.63
2023-03-04T04:32:35.915Z,49.13
2023-03-04T04:33:08.743Z,54.83
2023-03-04T04:33:40.643Z,51.55
2023-03-04T04:34:12.546Z,48.67
2023-03-04T04:34:45.363Z,47.58
2023-03-04T04:35:17.403Z,50.33
2023-03-04T04:35:49.228Z,45.95
2023-03-04T04:36:22.029Z,51.45
2023-03-04T04:36:54.805Z,51.38
2023-03-04T04:37:26.603Z,48.05
2023-03-04T04:37:58.411Z,47.28
2023-03-04T04:38:30.387Z,52.78
2023-03-04T04:39:03.595Z,47.05
2023-03-04T04:39:35.496Z,50.45
2023-03-04T04:40:08.552Z,48.25
2023-03-04T04:40:42.891Z,43.85
2023-03-04T04:41:20.437Z,52.13
2023-03-04T04:41:53.236Z,46.30
2023-03-04T04:42:27.475Z,44.45
2023-03-04T04:43:00.257Z,43.50
2023-03-04T04:43:32.047Z,46.70
2023-03-04T04:44:04.222Z,47.85
2023-03-04T04:44:38.734Z,45.75
2023-03-04T04:45:11.305Z,42.28
2023-03-04T04:45:43.113Z,44.60
2023-03-04T04:46:16.527Z,47.50
2023-03-04T04:46:48.638Z,46.33
2023-03-04T04:47:20.456Z,44.63
2023-03-04T04:47:53.560Z,44.00
2023-03-04T04:48:25.490Z,41.88
2023-03-04T04:48:57.599Z,41.97
2023-03-04T04:49:30.319Z,48.35
2023-03-04T04:50:02.172Z,45.58
2023-03-04T04:50:33.959Z,45.85
2023-03-04T04:51:06.963Z,45.53
2023-03-04T04:51:39.410Z,44.42
2023-03-04T04:52:11.711Z,48.00
2023-03-04T04:52:44.524Z,49.67
2023-03-04T04:53:16.315Z,45.05
2023-03-04T04:53:48.214Z,46.17
2023-03-04T04:54:21.038Z,47.35
2023-03-04T04:54:52.822Z,48.85
2023-03-04T04:55:24.700Z,48.15
2023-03-04T04:55:56.561Z,42.75
2023-03-04T04:56:30.526Z,44.40
2023-03-04T04:57:02.324Z,44.35
2023-03-04T04:57:35.662Z,40.88
2023-03-04T04:58:08.684Z,46.10
2023-03-04T04:58:40.756Z,47.42
2023-03-04T04:59:12.732Z,41.63
2023-03-04T04:59:45.503Z,43.72
2023-03-04T05:00:18.975Z,42.90
2023-03-04T05:00:50.918Z,44.25
2023-03-04T05:01:23.996Z,46.85
2023-03-04T05:01:55.814Z,43.75
2023-03-04T05:02:27.650Z,46.53
2023-03-04T05:03:00.495Z,44.70
2023-03-04T05:03:33.122Z,47.70
2023-03-04T05:04:05.499Z,44.53
2023-03-04T05:04:38.345Z,45.63
2023-03-04T05:05:10.471Z,43.20
2023-03-04T05:05:42.587Z,44.38
2023-03-04T05:06:15.369Z,44.58
2023-03-04T05:06:47.188Z,42.55
2023-03-04T05:07:19.031Z,47.05
2023-03-04T05:07:50.878Z,45.55
2023-03-04T05:08:23.647Z,44.30
2023-03-04T05:08:55.685Z,38.97
2023-03-04T05:09:27.496Z,49.88
2023-03-04T05:10:00.292Z,46.20
2023-03-04T05:10:32.273Z,49.03
2023-03-04T05:11:05.064Z,43.83
2023-03-04T05:11:37.825Z,44.03
2023-03-04T05:12:09.652Z,46.13
2023-03-04T05:12:44.295Z,44.60
2023-03-04T05:13:17.128Z,45.03
2023-03-04T05:13:49.206Z,43.90
2023-03-04T05:14:21.153Z,52.25
2023-03-04T05:14:53.908Z,48.88
2023-03-04T05:15:25.794Z,45.95
2023-03-04T05:15:57.853Z,43.03
2023-03-04T05:16:30.649Z,46.08
2023-03-04T05:17:02.458Z,47.92
2023-03-04T05:17:34.337Z,45.17
2023-03-04T05:18:07.189Z,48.85
2023-03-04T05:18:39.167Z,48.13
2023-03-04T05:19:11.324Z,50.65
2023-03-04T05:19:44.116Z,51.95
2023-03-04T05:20:16.202Z,40.25
2023-03-04T05:20:51.449Z,42.55
2023-03-04T05:21:24.277Z,46.55
2023-03-04T05:21:56.161Z,48.70
2023-03-04T05:22:27.966Z,46.92
2023-03-04T05:23:00.875Z,45.00
2023-03-04T05:23:35.597Z,48.88
2023-03-04T05:24:08.422Z,42.20
2023-03-04T05:24:41.174Z,45.95
2023-03-04T05:25:13.055Z,45.13
2023-03-04T05:25:44.910Z,45.70
2023-03-04T05:26:19.270Z,48.78
2023-03-04T05:26:51.052Z,44.70
2023-03-04T05:27:22.874Z,43.13
2023-03-04T05:27:56.974Z,43.78
2023-03-04T05:28:28.787Z,46.35
2023-03-04T05:29:00.577Z,42.95
2023-03-04T05:29:33.377Z,44.83
2023-03-04T05:30:06.238Z,44.90
2023-03-04T05:30:38.243Z,44.92
2023-03-04T05:31:11.917Z,44.13
2023-03-04T05:31:43.750Z,44.67
2023-03-04T05:32:15.605Z,43.63
2023-03-04T05:32:47.444Z,42.42
2023-03-04T05:33:20.486Z,44.17
2023-03-04T05:33:52.282Z,51.05
2023-03-04T05:34:24.078Z,44.83
2023-03-04T05:34:56.821Z,43.90
2023-03-04T05:35:29.180Z,45.83
2023-03-04T05:36:01.795Z,46.50
2023-03-04T05:36:34.663Z,38.53
2023-03-04T05:37:06.505Z,44.50
2023-03-04T05:37:38.323Z,40.03
2023-03-04T05:38:12.838Z,43.08
2023-03-04T05:38:45.596Z,42.65
2023-03-04T05:39:17.439Z,45.72
2023-03-04T05:39:49.243Z,44.80
2023-03-04T05:40:22.042Z,40.88
2023-03-04T05:40:57.657Z,40.38
2023-03-04T05:41:29.504Z,42.30
2023-03-04T05:42:02.299Z,45.50
2023-03-04T05:42:34.080Z,46.60
2023-03-04T05:43:07.832Z,44.03
2023-03-04T05:43:43.577Z,44.90
2023-03-04T05:44:15.370Z,46.00
2023-03-04T05:44:47.145Z,43.45
2023-03-04T05:45:20.029Z,45.58
2023-03-04T05:45:51.849Z,41.65
2023-03-04T05:46:25.435Z,43.65
2023-03-04T05:46:58.391Z,41.08
2023-03-04T05:47:30.187Z,43.95
2023-03-04T05:48:02.982Z,42.90
2023-03-04T05:48:35.784Z,45.60
2023-03-04T05:49:07.622Z,42.67
2023-03-04T05:49:40.971Z,41.28
2023-03-04T05:50:13.837Z,44.63
2023-03-04T05:50:45.675Z,42.50
2023-03-04T05:51:17.469Z,41.88
2023-03-04T05:51:50.228Z,43.92
2023-03-04T05:52:22.050Z,39.63
2023-03-04T05:52:53.983Z,47.70
2023-03-04T05:53:27.177Z,43.15
2023-03-04T05:53:58.986Z,42.95
2023-03-04T05:54:30.776Z,43.00
2023-03-04T05:55:03.610Z,40.03
2023-03-04T05:55:35.466Z,45.13
2023-03-04T05:56:08.497Z,47.30
2023-03-04T05:56:41.303Z,42.55
2023-03-04T05:57:13.157Z,44.70
2023-03-04T05:57:45.315Z,39.95
2023-03-04T05:58:20.347Z,42.42
2023-03-04T05:58:52.217Z,44.28
2023-03-04T05:59:24.206Z,45.78
2023-03-04T05:59:56.992Z,41.00
2023-03-04T06:00:29.058Z,44.67
2023-03-04T06:01:00.938Z,47.10
2023-03-04T06:01:33.761Z,48.03
2023-03-04T06:02:05.545Z,44.20
2023-03-04T06:02:37.845Z,39.88
2023-03-04T06:03:16.563Z,45.10
2023-03-04T06:03:49.184Z,46.08
2023-03-04T06:04:21.000Z,42.22
2023-03-04T06:04:53.798Z,44.65
2023-03-04T06:05:25.602Z,42.60
2023-03-04T06:05:58.683Z,44.15
2023-03-04T06:06:31.457Z,47.08
2023-03-04T06:07:03.268Z,46.72
2023-03-04T06:07:35.152Z,40.17
2023-03-04T06:08:07.939Z,42.92
2023-03-04T06:08:39.768Z,48.40
2023-03-04T06:09:11.545Z,43.70
2023-03-04T06:09:45.097Z,44.05
2023-03-04T06:10:18.027Z,44.45
2023-03-04T06:10:53.313Z,43.70
2023-03-04T06:11:26.075Z,41.10
2023-03-04T06:11:57.856Z,46.17
2023-03-04T06:12:29.773Z,41.97
2023-03-04T06:13:02.539Z,43.83
2023-03-04T06:13:36.120Z,41.80
2023-03-04T06:14:09.009Z,46.22
2023-03-04T06:14:40.866Z,44.30
2023-03-04T06:15:13.566Z,43.80
2023-03-04T06:15:45.401Z,44.35
2023-03-04T06:16:18.219Z,46.60
2023-03-04T06:16:50.086Z,48.30
2023-03-04T06:17:22.088Z,51.25
2023-03-04T06:17:53.851Z,48.50
2023-03-04T06:18:27.874Z,40.92
2023-03-04T06:18:59.685Z,42.45
2023-03-04T06:19:31.522Z,45.42
2023-03-04T06:20:06.004Z,43.58
2023-03-04T06:20:38.149Z,41.92
2023-03-04T06:21:09.935Z,49.70
2023-03-04T06:21:42.721Z,43.00
2023-03-04T06:22:14.777Z,42.42
2023-03-04T06:22:46.579Z,46.20
2023-03-04T06:23:19.339Z,44.05
2023-03-04T06:23:51.155Z,46.30
2023-03-04T06:24:23.069Z,43.15
2023-03-04T06:24:55.820Z,41.85
2023-03-04T06:25:27.730Z,48.05
2023-03-04T06:26:00.819Z,45.95
2023-03-04T06:26:33.594Z,44.60
2023-03-04T06:27:06.462Z,47.60
2023-03-04T06:27:38.270Z,45.42
2023-03-04T06:28:11.039Z,43.30
2023-03-04T06:28:44.949Z,40.63
2023-03-04T06:29:17.059Z,47.90
2023-03-04T06:29:49.876Z,51.03
2023-03-04T06:30:21.903Z,52.63
2023-03-04T06:30:55.357Z,43.00
2023-03-04T06:31:27.300Z,41.70
2023-03-04T06:31:59.169Z,44.05
2023-03-04T06:32:32.000Z,41.33
2023-03-04T06:33:03.914Z,41.05
2023-03-04T06:33:36.706Z,48.30
2023-03-04T06:34:08.660Z,48.83
2023-03-04T06:34:40.514Z,44.92
2023-03-04T06:35:13.775Z,37.15
2023-03-04T06:35:45.635Z,40.53
2023-03-04T06:36:17.492Z,45.03
2023-03-04T06:36:50.874Z,41.20
2023-03-04T06:37:23.255Z,44.75
2023-03-04T06:37:55.024Z,49.33
2023-03-04T06:38:28.030Z,43.47
2023-03-04T06:39:01.732Z,45.65
2023-03-04T06:39:33.545Z,43.72
2023-03-04T06:40:07.639Z,42.60
2023-03-04T06:40:39.545Z,43.30
2023-03-04T06:41:12.733Z,44.58
2023-03-04T06:41:45.687Z,48.83
2023-03-04T06:42:17.554Z,42.25
2023-03-04T06:42:49.470Z,49.42
2023-03-04T06:43:22.625Z,43.13
2023-03-04T06:43:55.916Z,43.53
2023-03-04T06:44:28.708Z,43.50
2023-03-04T06:45:00.775Z,44.15
2023-03-04T06:45:32.537Z,46.35
2023-03-04T06:46:05.617Z,42.25
2023-03-04T06:46:37.479Z,44.00
2023-03-04T06:47:09.386Z,40.80
2023-03-04T06:47:43.044Z,41.50
2023-03-04T06:48:14.824Z,43.95
2023-03-04T06:48:47.627Z,44.20
2023-03-04T06:49:19.453Z,45.63
2023-03-04T06:49:51.328Z,43.38
2023-03-04T06:50:24.090Z,43.97
2023-03-04T06:50:55.914Z,45.60
2023-03-04T06:51:28.097Z,40.30
2023-03-04T06:52:00.854Z,41.13
2023-03-04T06:52:32.897Z,38.58
2023-03-04T06:53:04.684Z,40.85
2023-03-04T06:53:37.483Z,43.50
2023-03-04T06:54:10.122Z,41.03
2023-03-04T06:54:41.989Z,44.65
2023-03-04T06:55:14.761Z,48.03
2023-03-04T06:55:47.128Z,47.00
2023-03-04T06:56:19.142Z,41.95
2023-03-04T06:56:51.999Z,38.90
2023-03-04T06:57:23.859Z,46.17
2023-03-04T06:57:55.636Z,43.08
2023-03-04T06:58:28.409Z,41.80
2023-03-04T06:59:01.619Z,44.60
2023-03-04T06:59:34.725Z,35.70
2023-03-04T07:00:07.642Z,44.42
2023-03-04T07:00:39.628Z,43.55
2023-03-04T07:01:13.126Z,43.20
2023-03-04T07:01:45.968Z,42.10